createdAt,value
2022-12-19T00:04:52.217Z,-0.7
2022-12-19T00:10:19.757Z,-0.8
2022-12-19T00:16:02.101Z,-0.7
2022-12-19T00:21:30.566Z,-0.7
2022-12-19T00:27:18.874Z,-0.8
2022-12-19T00:32:56.037Z,-0.8
2022-12-19T00:38:40.645Z,-0.8
2022-12-19T00:44:23.759Z,-0.7
2022-12-19T00:49:48.558Z,-0.7
2022-12-19T00:55:36.356Z,-0.7
2022-12-19T01:01:12.322Z,-0.7
2022-12-19T01:07:36.918Z,-0.7
2022-12-19T01:13:29.721Z,-0.7
2022-12-19T01:19:28.789Z,-0.8
2022-12-19T01:25:23.362Z,-0.8
2022-12-19T01:31:25.835Z,-0.8
2022-12-19T01:37:07.526Z,-0.9
2022-12-19T01:47:41.705Z,-1
2022-12-19T01:53:20.115Z,-1.1
2022-12-19T01:58:46.832Z,-1.2
2022-12-19T02:04:11.757Z,-1.4
2022-12-19T02:10:13.760Z,-1.5
2022-12-19T02:15:20.969Z,-1.6
2022-12-19T02:21:03.674Z,-1.8
2022-12-19T02:26:53.932Z,-1.9
2022-12-19T02:32:45.154Z,-2.1
2022-12-19T02:38:33.019Z,-2.2
2022-12-19T02:44:05.602Z,-2.3
2022-12-19T02:50:04.193Z,-2.4
2022-12-19T02:55:42.282Z,-2.5
2022-12-19T03:01:25.316Z,-2.6
2022-12-19T03:07:05.515Z,-2.6
2022-12-19T03:12:50.779Z,-2.7
2022-12-19T03:18:29.656Z,-2.8
2022-12-19T03:24:06.365Z,-2.9
2022-12-19T03:29:44.054Z,-3.1
2022-12-19T03:35:24.552Z,-3.2
2022-12-19T03:40:47.759Z,-3.4
2022-12-19T03:46:29.130Z,-3.5
2022-12-19T03:52:11.549Z,-3.6
2022-12-19T04:03:12.670Z,-3.9
2022-12-19T04:08:52.192Z,-4
2022-12-19T04:14:30.212Z,-4
2022-12-19T04:20:14.575Z,-4.1
2022-12-19T04:25:26.332Z,-4.1
2022-12-19T04:30:36.488Z,-4.3
2022-12-19T04:36:16.505Z,-4.3
2022-12-19T04:41:55.481Z,-4.3
2022-12-19T04:47:39.055Z,-4.3
2022-12-19T04:53:20.328Z,-4.3
2022-12-19T04:58:59.388Z,-4.4
2022-12-19T05:04:44.608Z,-4.4
2022-12-19T05:10:23.014Z,-4.4
2022-12-19T05:15:53.629Z,-4.6
2022-12-19T05:21:01.916Z,-4.6
2022-12-19T05:26:44.840Z,-4.7
2022-12-19T05:32:24.227Z,-4.7
2022-12-19T05:38:02.049Z,-4.7
2022-12-19T05:43:41.613Z,-4.7
2022-12-19T05:49:29.860Z,-4.7
2022-12-19T05:55:11.239Z,-4.6
2022-12-19T06:00:50.108Z,-4.6
2022-12-19T06:06:30.968Z,-4.5
2022-12-19T06:12:10.888Z,-4.4
2022-12-19T06:17:41.537Z,-4.3
2022-12-19T06:23:14.408Z,-4.1
2022-12-19T06:28:55.553Z,-3.9
2022-12-19T06:35:11.942Z,-3.7
2022-12-19T06:40:54.135Z,-3.4
2022-12-19T06:46:32.155Z,-3.1
2022-12-19T06:51:55.423Z,-2.9
2022-12-19T06:57:35.476Z,-2.6
2022-12-19T07:03:16.498Z,-2.3
2022-12-19T07:08:56.052Z,-2
2022-12-19T07:14:35.327Z,-1.7
2022-12-19T07:20:15.553Z,-1.3
2022-12-19T07:25:54.220Z,-0.9
2022-12-19T07:31:36.325Z,-0.3
2022-12-19T07:36:32.319Z,0.3
2022-12-19T07:42:11.009Z,0.8
2022-12-19T07:47:40.393Z,1.3
2022-12-19T07:53:21.888Z,1.8
2022-12-19T07:59:00.704Z,2.1
2022-12-19T08:04:48.216Z,2.6
2022-12-19T08:10:12.089Z,2.8
2022-12-19T08:15:59.513Z,3.1
2022-12-19T08:22:16.026Z,3.4
2022-12-19T08:27:59.802Z,3.8
2022-12-19T08:33:40.517Z,4.1
2022-12-19T08:39:20.657Z,4.4
2022-12-19T08:45:03.608Z,4.8
2022-12-19T08:50:49.887Z,5.3
2022-12-19T08:56:35.545Z,5.8
2022-12-19T09:02:34.325Z,6.3
2022-12-19T09:10:37.304Z,6.9
2022-12-19T09:16:26.444Z,7.3
2022-12-19T09:22:21.356Z,7.7
2022-12-19T09:28:45.048Z,8.4
2022-12-19T09:34:37.271Z,9.1
2022-12-19T09:40:33.294Z,9.6
2022-12-19T09:46:23.242Z,9.9
2022-12-19T09:52:22.055Z,10.1
2022-12-19T09:57:58.264Z,10.5
2022-12-19T10:03:58.871Z,10.9
2022-12-19T10:16:00.035Z,11.8
2022-12-19T10:22:58.295Z,12.3
2022-12-19T10:29:11.508Z,13.3
2022-12-19T10:35:06.452Z,15.1
2022-12-19T10:42:00.716Z,18.3
2022-12-19T10:47:54.666Z,20.9
2022-12-19T10:53:43.914Z,22.4
2022-12-19T10:58:57.993Z,22.8
2022-12-19T11:04:54.217Z,22.2
2022-12-19T11:38:00.965Z,17.6
2022-12-19T11:44:18.716Z,16.9
2022-12-19T11:50:05.693Z,16.1
2022-12-19T11:56:33.113Z,15.3
2022-12-19T12:02:13.918Z,14.6
